Time;durP1;ratioP1;P1;durP2;ratioP2;P2;SDS_P1;SDS_P2;PMS_P1;PMS_P2;Temp;Humidity;BMP_temperature;BMP_pressure;BME280_temperature;BME280_humidity;BME280_pressure;Samples;Min_cycle;Max_cycle;Signal;HPM_P1;HPM_P2
2023/05/30 00:01:54;;;;;;;8.90;3.20;;;;;;;10.93;100.00;102761.03;5001123;28;20061;-78
2023/05/30 00:04:21;;;;;;;8.82;3.22;;;;;;;10.93;100.00;102761.03;5021111;28;20061;-79
2023/05/30 00:06:49;;;;;;;10.98;3.30;;;;;;;10.93;100.00;102750.50;5032240;28;20037;-79
2023/05/30 00:09:17;;;;;;;12.35;3.78;;;;;;;10.96;100.00;102759.34;5017543;28;20049;-79
2023/05/30 00:11:44;;;;;;;8.27;2.83;;;;;;;10.97;100.00;102772.59;5006835;28;20046;-79
2023/05/30 00:14:11;;;;;;;6.63;2.90;;;;;;;10.95;100.00;102770.75;4969939;28;20491;-78
2023/05/30 00:16:41;;;;;;;11.50;3.15;;;;;;;10.97;100.00;102771.72;5055949;28;20124;-78
2023/05/30 00:19:08;;;;;;;9.48;3.00;;;;;;;10.93;100.00;102775.97;5026734;28;20064;-78
2023/05/30 00:21:35;;;;;;;10.07;2.63;;;;;;;10.92;100.00;102779.44;4993203;28;20690;-78
2023/05/30 00:24:04;;;;;;;10.13;3.17;;;;;;;10.88;100.00;102775.81;5005365;28;20049;-78
2023/05/30 00:26:32;;;;;;;7.97;2.85;;;;;;;10.87;100.00;102771.41;5029456;28;20061;-78
2023/05/30 00:28:59;;;;;;;14.95;3.08;;;;;;;10.88;100.00;102772.28;4985098;28;20719;-78
2023/05/30 00:31:26;;;;;;;8.40;2.50;;;;;;;10.89;100.00;102780.25;5009889;28;20041;-79
2023/05/30 00:33:54;;;;;;;9.25;3.45;;;;;;;10.88;100.00;102775.81;5007001;28;20050;-78
2023/05/30 00:36:21;;;;;;;11.60;3.20;;;;;;;10.89;100.00;102772.34;5020507;28;20491;-78
2023/05/30 00:38:49;;;;;;;9.35;2.88;;;;;;;10.87;100.00;102779.31;5019665;28;20046;-77
2023/05/30 00:41:16;;;;;;;9.35;2.42;;;;;;;10.83;100.00;102769.53;4972082;28;20041;-78
2023/05/30 00:43:44;;;;;;;14.50;2.90;;;;;;;10.84;100.00;102776.56;5005718;28;20057;-77
2023/05/30 00:46:14;;;;;;;9.25;2.83;;;;;;;10.83;100.00;102774.78;4971728;28;20054;-78
2023/05/30 00:48:42;;;;;;;15.68;3.17;;;;;;;10.85;100.00;102782.72;5018741;28;20053;-78
2023/05/30 00:51:11;;;;;;;6.28;2.55;;;;;;;10.85;100.00;102782.72;5022532;28;20068;-78
2023/05/30 00:53:41;;;;;;;8.77;2.78;;;;;;;10.86;100.00;102784.53;5003640;28;20045;-78
2023/05/30 00:56:10;;;;;;;11.93;4.05;;;;;;;10.86;100.00;102784.53;5015604;28;20045;-79
2023/05/30 00:58:39;;;;;;;8.55;3.50;;;;;;;10.86;100.00;102785.41;5017991;28;20056;-79
2023/05/30 01:01:06;;;;;;;8.85;2.83;;;;;;;10.87;100.00;102781.94;4972767;28;20533;-78
2023/05/30 01:03:35;;;;;;;10.95;3.33;;;;;;;10.86;100.00;102781.91;5019897;28;20041;-78
2023/05/30 01:06:06;;;;;;;15.93;2.78;;;;;;;10.79;100.00;102770.22;5030510;28;20056;-77
2023/05/30 01:08:33;;;;;;;11.15;2.75;;;;;;;10.79;100.00;102771.97;5023206;28;20057;-80
2023/05/30 01:11:10;;;;;;;10.52;3.17;;;;;;;10.79;100.00;102769.34;4991605;28;20149;-79
2023/05/30 01:14:08;;;;;;;9.93;3.00;;;;;;;10.78;100.00;102763.19;4996730;28;20057;-80
2023/05/30 01:16:42;;;;;;;12.02;3.30;;;;;;;10.78;100.00;102773.75;4979416;28;20057;-80
2023/05/30 01:19:28;;;;;;;13.98;3.13;;;;;;;10.76;100.00;102766.63;5047775;28;20391;-79
2023/05/30 01:22:16;;;;;;;8.27;2.88;;;;;;;10.72;100.00;102766.53;5022179;28;20045;-77
2023/05/30 01:24:52;;;;;;;9.95;2.92;;;;;;;10.72;100.00;102769.16;5022718;28;20052;-78
2023/05/30 01:27:33;;;;;;;12.90;3.00;;;;;;;10.70;100.00;102767.31;5016154;28;20052;-78
2023/05/30 01:30:03;;;;;;;12.60;3.22;;;;;;;10.70;100.00;102768.22;4980203;28;20658;-78
2023/05/30 01:32:31;;;;;;;12.98;3.03;;;;;;;10.72;100.00;102770.91;5015606;28;20050;-78
2023/05/30 01:34:58;;;;;;;14.52;4.20;;;;;;;10.75;100.00;102773.63;5037337;28;20041;-78
2023/05/30 01:37:26;;;;;;;13.52;3.33;;;;;;;10.76;100.00;102778.06;5008601;28;20045;-78
2023/05/30 01:39:53;;;;;;;9.40;3.33;;;;;;;10.76;100.00;102777.19;4985390;28;20057;-78
2023/05/30 01:42:29;;;;;;;9.95;3.40;;;;;;;10.76;100.00;102779.81;5025272;28;20050;-78
2023/05/30 01:45:22;;;;;;;7.53;2.75;;;;;;;10.74;100.00;102779.75;5014933;28;20060;-78
2023/05/30 01:48:14;;;;;;;10.70;4.10;;;;;;;10.73;100.00;102781.47;4979372;28;20763;-79
2023/05/30 01:50:47;;;;;;;9.38;3.78;;;;;;;10.75;100.00;102776.25;5038404;28;20057;-79
2023/05/30 01:53:27;;;;;;;11.38;3.75;;;;;;;10.78;100.00;102781.66;5025426;28;20041;-79
2023/05/30 01:55:58;;;;;;;8.05;3.10;;;;;;;10.80;100.00;102776.44;5021796;28;20057;-79
2023/05/30 01:58:27;;;;;;;9.85;3.00;;;;;;;10.80;100.00;102772.03;5022910;28;20522;-78
2023/05/30 02:00:56;;;;;;;14.02;3.50;;;;;;;10.82;100.00;102778.25;5013965;28;20050;-78
2023/05/30 02:03:24;;;;;;;9.13;3.20;;;;;;;10.83;100.00;102780.06;4978517;28;20045;-79
2023/05/30 02:05:52;;;;;;;13.30;4.05;;;;;;;10.83;100.00;102787.06;5017731;28;20053;-78
2023/05/30 02:08:19;;;;;;;12.70;3.70;;;;;;;10.81;100.00;102789.69;5054126;28;20056;-78
2023/05/30 02:10:47;;;;;;;9.57;2.85;;;;;;;10.77;100.00;102785.13;5021519;28;20057;-78
2023/05/30 02:13:18;;;;;;;6.63;2.63;;;;;;;10.75;100.00;102791.19;5009157;28;20049;-78
2023/05/30 02:15:46;;;;;;;13.70;3.30;;;;;;;10.74;100.00;102790.31;5010842;28;20068;-78
2023/05/30 02:18:13;;;;;;;15.93;3.83;;;;;;;10.73;100.00;102789.38;4971681;28;20046;-78
2023/05/30 02:20:41;;;;;;;10.10;2.95;;;;;;;10.73;100.00;102784.09;5000913;28;20038;-78
2023/05/30 02:23:08;;;;;;;7.78;2.50;;;;;;;10.72;100.00;102781.44;4995684;28;20038;-78
2023/05/30 02:25:36;;;;;;;13.68;2.78;;;;;;;10.69;100.00;102783.97;5036047;28;20422;-78
2023/05/30 02:28:03;;;;;;;16.73;3.92;;;;;;;10.67;100.00;102791.81;5023910;28;20056;-78
2023/05/30 02:30:32;;;;;;;10.38;3.50;;;;;;;10.68;100.00;102790.06;5013965;28;20052;-78
2023/05/30 02:33:00;;;;;;;15.32;3.10;;;;;;;10.70;100.00;102788.41;4961785;28;20050;-78
2023/05/30 02:35:28;;;;;;;13.70;3.17;;;;;;;10.70;100.00;102778.75;5007618;28;20056;-78
2023/05/30 02:37:55;;;;;;;12.48;3.42;;;;;;;10.73;100.00;102777.94;4990817;28;20049;-78
2023/05/30 02:40:23;;;;;;;12.60;3.10;;;;;;;10.74;100.00;102777.13;5011146;28;20053;-77
2023/05/30 02:42:50;;;;;;;10.73;2.60;;;;;;;10.75;100.00;102780.66;5024031;28;20053;-80
2023/05/30 02:45:18;;;;;;;13.18;3.20;;;;;;;10.76;100.00;102783.34;5044229;28;20410;-78
2023/05/30 02:47:45;;;;;;;12.00;3.72;;;;;;;10.79;100.00;102790.44;4971344;28;20057;-78
2023/05/30 02:50:13;;;;;;;11.10;3.35;;;;;;;10.82;100.00;102798.47;5011123;28;20045;-78
2023/05/30 02:52:41;;;;;;;11.77;2.88;;;;;;;10.85;100.00;102798.56;5008692;28;20064;-78
2023/05/30 02:55:09;;;;;;;16.35;4.10;;;;;;;10.86;100.00;102806.53;5026197;28;20050;-77
2023/05/30 02:57:54;;;;;;;8.50;2.63;;;;;;;10.88;100.00;102799.56;4992120;28;20065;-77
2023/05/30 03:00:35;;;;;;;12.43;3.17;;;;;;;10.91;100.00;102799.66;5008422;28;20050;-78
2023/05/30 03:03:11;;;;;;;11.88;3.15;;;;;;;10.94;100.00;102809.41;4998285;28;20485;-78
2023/05/30 03:05:46;;;;;;;12.57;3.17;;;;;;;10.94;100.00;102804.13;4983500;28;20054;-80
2023/05/30 03:08:26;;;;;;;15.98;3.05;;;;;;;10.97;100.00;102806.00;5027344;28;20053;-78
2023/05/30 03:10:54;;;;;;;13.90;2.83;;;;;;;10.94;100.00;102804.13;5009715;28;20045;-80
2023/05/30 03:13:22;;;;;;;13.30;3.05;;;;;;;10.95;100.00;102813.84;5023409;28;20037;-79
2023/05/30 03:15:50;;;;;;;12.50;3.67;;;;;;;10.92;100.00;102809.34;5010655;28;20053;-80
2023/05/30 03:18:17;;;;;;;14.30;3.38;;;;;;;10.95;100.00;102807.69;4956273;28;20073;-79
2023/05/30 03:20:45;;;;;;;17.00;4.25;;;;;;;10.96;100.00;102804.19;4994725;28;20055;-79
2023/05/30 03:23:12;;;;;;;10.18;3.08;;;;;;;11.00;100.00;102811.34;5024028;28;20038;-80
2023/05/30 03:25:40;;;;;;;9.75;3.78;;;;;;;11.01;100.00;102813.16;4993058;28;20494;-79
2023/05/30 03:28:07;;;;;;;15.50;3.45;;;;;;;11.02;100.00;102807.03;5023425;28;20049;-79
2023/05/30 03:30:50;;;;;;;10.80;3.15;;;;;;;11.03;100.00;102811.47;5014776;28;20057;-79
2023/05/30 03:33:19;;;;;;;9.80;3.15;;;;;;;11.04;100.00;102815.88;5008633;28;20057;-79
2023/05/30 03:35:46;;;;;;;12.77;3.10;;;;;;;11.04;100.00;102811.53;4980550;28;20057;-79
2023/05/30 03:38:14;;;;;;;11.25;3.30;;;;;;;11.07;100.00;102818.63;5023579;28;20053;-79
2023/05/30 03:40:41;;;;;;;10.15;3.78;;;;;;;11.09;100.00;102820.47;5026108;28;20132;-79
2023/05/30 03:43:09;;;;;;;10.82;3.03;;;;;;;11.12;100.00;102832.88;5037998;28;20042;-79
2023/05/30 03:45:37;;;;;;;11.27;3.08;;;;;;;11.12;100.00;102838.16;5010827;28;20052;-79
2023/05/30 03:48:04;;;;;;;15.85;3.15;;;;;;;11.11;100.00;102828.44;5007307;28;20049;-79
2023/05/30 03:50:32;;;;;;;15.15;3.47;;;;;;;11.12;100.00;102835.53;4985561;28;20415;-79
2023/05/30 03:53:00;;;;;;;11.55;3.35;;;;;;;11.13;100.00;102832.00;5022722;28;20045;-79
2023/05/30 03:55:28;;;;;;;14.02;2.95;;;;;;;11.16;100.00;102842.69;5009838;28;20053;-79
2023/05/30 03:57:55;;;;;;;9.23;2.75;;;;;;;11.17;100.00;102835.66;5042526;28;20056;-79
2023/05/30 04:00:22;;;;;;;8.15;3.35;;;;;;;11.17;100.00;102839.22;5007824;28;20052;-79
2023/05/30 04:02:50;;;;;;;8.88;3.13;;;;;;;11.18;100.00;102829.53;4989915;28;20494;-79
2023/05/30 04:05:18;;;;;;;6.30;2.60;;;;;;;11.19;100.00;102831.31;4957807;28;22314;-79
2023/05/30 04:07:47;;;;;;;8.82;2.83;;;;;;;11.18;100.00;102838.34;5001508;28;20078;-79
2023/05/30 04:10:14;;;;;;;12.35;3.28;;;;;;;11.18;100.00;102837.47;5023459;28;20045;-79
2023/05/30 04:12:43;;;;;;;10.85;3.08;;;;;;;11.17;100.00;102831.28;4993888;28;20518;-79
2023/05/30 04:15:12;;;;;;;13.57;3.60;;;;;;;11.16;100.00;102832.13;5049121;28;20049;-79
2023/05/30 04:17:40;;;;;;;12.63;3.58;;;;;;;11.15;100.00;102838.25;5005234;28;20042;-79
2023/05/30 04:20:12;;;;;;;15.02;4.18;;;;;;;11.13;100.00;102842.56;5008449;28;20054;-79
2023/05/30 04:22:41;;;;;;;10.32;2.95;;;;;;;11.12;100.00;102830.25;4976878;28;20064;-79
2023/05/30 04:25:09;;;;;;;9.55;3.00;;;;;;;11.13;100.00;102832.00;5006692;28;20414;-79
2023/05/30 04:27:39;;;;;;;11.77;2.90;;;;;;;11.14;100.00;102831.19;5006072;28;20042;-79
2023/05/30 04:30:16;;;;;;;15.70;3.17;;;;;;;11.16;100.00;102832.13;5021141;28;20053;-79
2023/05/30 04:32:44;;;;;;;10.70;3.22;;;;;;;11.18;100.00;102829.53;4991014;28;20058;-79
2023/05/30 04:35:13;;;;;;;10.95;2.97;;;;;;;11.19;100.00;102837.50;5021818;28;20779;-79
2023/05/30 04:37:44;;;;;;;8.63;2.65;;;;;;;11.21;100.00;102835.81;4998345;28;20391;-79
2023/05/30 04:40:13;;;;;;;12.30;3.20;;;;;;;11.24;100.00;102835.00;4994359;28;20049;-79
2023/05/30 04:42:41;;;;;;;13.23;3.42;;;;;;;11.26;100.00;102833.31;5008128;28;20396;-79
2023/05/30 04:45:14;;;;;;;15.25;3.65;;;;;;;11.26;100.00;102831.56;4988468;28;20045;-79
2023/05/30 04:47:45;;;;;;;9.18;3.22;;;;;;;11.27;100.00;102830.72;5021234;28;20411;-79
2023/05/30 04:50:16;;;;;;;8.82;2.92;;;;;;;11.27;100.00;102830.72;5001454;28;20555;-79
2023/05/30 04:52:43;;;;;;;12.25;3.72;;;;;;;11.25;100.00;102823.63;4983157;28;20052;-78
2023/05/30 04:55:12;;;;;;;8.02;2.63;;;;;;;11.25;100.00;102834.19;4971654;28;20919;-79
2023/05/30 04:57:39;;;;;;;5.88;2.42;;;;;;;11.22;100.00;102827.03;5024923;28;20045;-78
2023/05/30 05:00:12;;;;;;;7.65;2.80;;;;;;;11.21;100.00;102820.00;5013780;28;20955;-79
2023/05/30 05:02:44;;;;;;;8.70;2.67;;;;;;;11.20;100.00;102833.13;5017944;28;20049;-75
2023/05/30 05:05:12;;;;;;;8.07;2.45;;;;;;;11.20;100.00;102822.56;5017939;28;20044;-77
2023/05/30 05:07:40;;;;;;;7.95;2.55;;;;;;;11.21;100.00;102830.53;5005586;28;20446;-77
2023/05/30 05:10:10;;;;;;;8.52;2.80;;;;;;;11.20;100.00;102834.00;4954291;28;20081;-77
2023/05/30 05:12:38;;;;;;;6.63;2.80;;;;;;;11.19;100.00;102837.50;5017779;28;20049;-77
2023/05/30 05:15:06;;;;;;;4.65;2.55;;;;;;;11.19;100.00;102831.31;5013383;28;20041;-77
2023/05/30 05:17:33;;;;;;;8.13;3.20;;;;;;;11.17;100.00;102831.28;5010016;28;20049;-77
2023/05/30 05:20:02;;;;;;;4.88;2.15;;;;;;;11.17;100.00;102826.03;5021424;28;20052;-77
2023/05/30 05:22:33;;;;;;;6.60;2.72;;;;;;;11.18;100.00;102835.72;4991554;28;21469;-77
2023/05/30 05:25:00;;;;;;;5.95;2.83;;;;;;;11.17;100.00;102830.38;4951405;28;20045;-77
2023/05/30 05:27:28;;;;;;;10.55;2.63;;;;;;;11.15;100.00;102827.69;5003673;28;20049;-77
2023/05/30 05:29:55;;;;;;;10.13;2.15;;;;;;;11.15;100.00;102830.31;5009243;28;20056;-77
2023/05/30 05:32:23;;;;;;;7.30;2.58;;;;;;;11.16;100.00;102834.75;5001103;28;20057;-77
2023/05/30 05:34:52;;;;;;;8.93;2.47;;;;;;;11.21;100.00;102835.81;5002949;28;20037;-77
2023/05/30 05:37:20;;;;;;;9.15;2.45;;;;;;;11.23;100.00;102838.50;5025599;28;20059;-77
2023/05/30 05:39:47;;;;;;;7.78;2.35;;;;;;;11.23;100.00;102825.31;4952617;28;20068;-78
2023/05/30 05:42:14;;;;;;;11.32;2.90;;;;;;;11.23;100.00;102836.75;5008117;28;20040;-77
2023/05/30 05:44:42;;;;;;;6.18;2.58;;;;;;;11.23;100.00;102836.75;4997271;28;20050;-78
2023/05/30 05:47:09;;;;;;;7.13;2.42;;;;;;;11.24;100.00;102843.81;5023682;28;20061;-77
2023/05/30 05:49:36;;;;;;;5.43;2.03;;;;;;;11.21;100.00;102846.38;5020607;28;20049;-77
2023/05/30 05:52:04;;;;;;;13.57;3.00;;;;;;;11.23;100.00;102849.97;5024681;28;20057;-77
2023/05/30 05:54:31;;;;;;;9.20;2.75;;;;;;;11.21;100.00;102846.38;4946570;28;26303;-77
2023/05/30 05:56:59;;;;;;;4.57;2.30;;;;;;;11.18;100.00;102837.47;5008076;28;20042;-77
2023/05/30 05:59:26;;;;;;;5.25;1.90;;;;;;;11.19;100.00;102839.25;5015344;28;20045;-77
2023/05/30 06:01:53;;;;;;;9.52;2.20;;;;;;;11.19;100.00;102841.88;4987803;28;20495;-77
2023/05/30 06:04:21;;;;;;;10.50;2.00;;;;;;;11.19;100.00;102841.88;5024051;28;20057;-77
2023/05/30 06:06:49;;;;;;;8.00;2.70;;;;;;;11.22;100.00;102842.00;5034128;28;20057;-77
2023/05/30 06:09:16;;;;;;;4.43;1.83;;;;;;;11.25;100.00;102845.63;5024363;28;20068;-77
2023/05/30 06:11:43;;;;;;;2.78;1.65;;;;;;;11.29;100.00;102839.59;4972979;28;20046;-77
2023/05/30 06:14:12;;;;;;;7.32;2.10;;;;;;;11.32;100.00;102839.69;4988130;28;20048;-77
2023/05/30 06:16:39;;;;;;;7.72;2.35;;;;;;;11.36;100.00;102840.69;5023999;28;20121;-79
2023/05/30 06:19:07;;;;;;;3.80;1.85;;;;;;;11.38;100.00;102836.38;4992646;28;20068;-78
2023/05/30 06:21:35;;;;;;;5.55;2.05;;;;;;;11.39;100.00;102838.13;5024658;28;20053;-77
2023/05/30 06:24:03;;;;;;;3.97;1.90;;;;;;;11.43;100.00;102842.66;5028426;28;20514;-77
2023/05/30 06:26:30;;;;;;;5.57;1.58;;;;;;;11.45;100.00;102845.34;4969280;28;20049;-77
2023/05/30 06:28:58;;;;;;;5.10;2.65;;;;;;;11.46;100.00;102842.78;5019822;28;20414;-77
2023/05/30 06:31:25;;;;;;;4.78;1.88;;;;;;;11.47;100.00;102844.56;5026850;28;20402;-77
2023/05/30 06:33:53;;;;;;;6.35;1.85;;;;;;;11.49;100.00;102852.50;5027101;28;20057;-77
2023/05/30 06:36:20;;;;;;;3.05;1.85;;;;;;;11.51;100.00;102856.09;5022524;28;20053;-77
2023/05/30 06:38:48;;;;;;;3.92;1.63;;;;;;;11.50;100.00;102851.69;5040161;28;20056;-77
2023/05/30 06:41:15;;;;;;;3.97;1.60;;;;;;;11.51;100.00;102858.75;5014651;28;20491;-77
2023/05/30 06:43:42;;;;;;;3.42;1.40;;;;;;;11.51;100.00;102859.66;4988054;28;21369;-77
2023/05/30 06:46:10;;;;;;;2.90;1.70;;;;;;;11.55;100.00;102854.44;5023878;28;20081;-77
2023/05/30 06:48:37;;;;;;;6.95;1.75;;;;;;;11.57;100.00;102871.22;5041155;28;20064;-77
2023/05/30 06:51:06;;;;;;;2.72;1.63;;;;;;;11.57;100.00;102856.31;5023370;28;20042;-78
2023/05/30 06:53:34;;;;;;;4.05;2.03;;;;;;;11.62;100.00;102859.09;5019835;28;20054;-77
2023/05/30 06:56:02;;;;;;;5.72;1.55;;;;;;;11.66;100.00;102860.97;5023894;28;20046;-77
2023/05/30 06:58:29;;;;;;;4.35;1.40;;;;;;;11.69;100.00;102861.97;5006004;28;20057;-77
2023/05/30 07:00:57;;;;;;;2.58;1.48;;;;;;;11.68;100.00;102873.38;5003882;28;20061;-77
2023/05/30 07:03:25;;;;;;;4.93;1.40;;;;;;;11.67;100.00;102873.34;5006760;28;20049;-77
2023/05/30 07:05:53;;;;;;;1.80;1.05;;;;;;;11.63;100.00;102874.09;5035302;28;20396;-76
2023/05/30 07:08:20;;;;;;;1.02;0.90;;;;;;;11.54;100.00;102871.16;5007840;28;20057;-76
2023/05/30 07:10:47;;;;;;;1.52;0.80;;;;;;;11.48;100.00;102866.59;4988356;28;20056;-76
2023/05/30 07:13:15;;;;;;;2.30;0.95;;;;;;;11.46;100.00;102866.53;5027439;28;20057;-76
2023/05/30 07:15:42;;;;;;;1.48;1.00;;;;;;;11.49;100.00;102871.00;4982826;28;20049;-77
2023/05/30 07:18:10;;;;;;;1.20;0.90;;;;;;;11.54;100.00;102869.41;5024129;28;20058;-77
2023/05/30 07:20:37;;;;;;;1.70;1.23;;;;;;;11.64;100.00;102876.75;5023564;28;20053;-77
2023/05/30 07:23:05;;;;;;;2.40;0.90;;;;;;;11.68;100.00;102868.09;4997211;28;20060;-77
2023/05/30 07:25:32;;;;;;;1.80;0.80;;;;;;;11.75;100.00;102874.47;5019500;28;20041;-76
2023/05/30 07:28:00;;;;;;;1.05;0.70;;;;;;;11.85;100.00;102865.97;5008480;28;20056;-75
2023/05/30 07:30:27;;;;;;;0.98;0.60;;;;;;;12.00;100.00;102864.66;4978428;28;20041;-77
2023/05/30 07:32:55;;;;;;;0.52;0.52;;;;;;;12.15;100.00;102861.56;5001602;28;20057;-77
2023/05/30 07:35:22;;;;;;;0.60;0.60;;;;;;;12.32;100.00;102852.38;5007971;28;20049;-77
2023/05/30 07:37:51;;;;;;;0.70;0.50;;;;;;;12.51;100.00;102863.47;5020134;28;20054;-77
2023/05/30 07:40:19;;;;;;;0.85;0.50;;;;;;;12.64;100.00;102853.25;5023174;28;20517;-77
2023/05/30 07:42:49;;;;;;;0.77;0.60;;;;;;;12.79;100.00;102851.88;5006926;28;20133;-75
2023/05/30 07:45:18;;;;;;;0.70;0.70;;;;;;;12.99;100.00;102847.09;4970611;28;20053;-77
2023/05/30 07:47:45;;;;;;;0.47;0.47;;;;;;;13.15;100.00;102851.88;5009487;28;20064;-77
2023/05/30 07:50:13;;;;;;;2.70;0.80;;;;;;;13.25;100.00;102848.63;4991449;28;20053;-77
2023/05/30 07:52:40;;;;;;;0.60;0.60;;;;;;;13.30;100.00;102856.69;5006099;28;20049;-77
2023/05/30 07:55:08;;;;;;;1.38;0.57;;;;;;;13.31;100.00;102861.16;5025952;28;20514;-77
2023/05/30 07:57:35;;;;;;;0.70;0.70;;;;;;;13.27;100.00;102865.44;5020923;28;20045;-76
2023/05/30 08:00:08;;;;;;;4.38;0.82;;;;;;;13.19;100.00;102867.00;4946727;28;20056;-76
2023/05/30 08:02:37;;;;;;;1.13;0.50;;;;;;;13.04;100.00;102864.88;5013482;28;20058;-77
2023/05/30 08:05:05;;;;;;;0.80;0.60;;;;;;;12.94;100.00;102869.91;5023017;28;20479;-77
2023/05/30 08:07:32;;;;;;;3.65;0.70;;;;;;;12.86;100.00;102873.22;5001679;28;20037;-77
2023/05/30 08:10:00;;;;;;;0.70;0.52;;;;;;;12.81;100.00;102861.63;5021574;28;20053;-77
2023/05/30 08:12:30;;;;;;;0.90;0.60;;;;;;;12.83;100.00;102869.59;5006952;28;20054;-77
2023/05/30 08:14:57;;;;;;;1.50;0.60;;;;;;;12.88;100.00;102860.94;4973776;28;20046;-77
2023/05/30 08:17:25;;;;;;;0.60;0.60;;;;;;;12.94;100.00;102873.44;5038922;28;20060;-77
2023/05/30 08:19:53;;;;;;;0.52;0.52;;;;;;;12.92;100.00;102864.56;5016497;28;20053;-77
2023/05/30 08:22:22;;;;;;;0.47;0.40;;;;;;;12.90;100.00;102852.16;5023816;28;20046;-76
2023/05/30 08:24:59;;;;;;;1.17;0.50;;;;;;;12.87;100.00;102851.22;5004104;28;20056;-77
2023/05/30 08:27:26;;;;;;;1.40;0.47;;;;;;;12.82;100.00;102851.97;5026988;28;20049;-77
2023/05/30 08:29:54;;;;;;;0.65;0.60;;;;;;;12.74;100.00;102854.41;5023379;28;20052;-77
2023/05/30 08:32:22;;;;;;;0.60;0.60;;;;;;;12.70;100.00;102857.81;4935950;28;20088;-77
2023/05/30 08:34:49;;;;;;;3.15;0.68;;;;;;;12.62;100.00;102856.72;5015700;28;20566;-76
2023/05/30 08:37:18;;;;;;;2.75;0.80;;;;;;;12.56;100.00;102854.78;5022057;28;20422;-76
2023/05/30 08:39:46;;;;;;;1.10;0.75;;;;;;;12.45;100.00;102854.50;5002139;28;20046;-76
2023/05/30 08:42:14;;;;;;;1.20;0.70;;;;;;;12.39;100.00;102856.09;5022842;28;20057;-76
2023/05/30 08:44:41;;;;;;;1.30;0.55;;;;;;;12.32;100.00;102859.41;5014240;28;20045;-76
2023/05/30 08:47:11;;;;;;;1.30;0.60;;;;;;;12.33;100.00;102858.56;4977306;28;20056;-77
2023/05/30 08:49:42;;;;;;;2.25;0.60;;;;;;;12.39;100.00;102862.25;5012069;28;20457;-76
2023/05/30 08:52:13;;;;;;;0.82;0.82;;;;;;;12.56;100.00;102873.31;4990718;28;20052;-76
2023/05/30 08:55:10;;;;;;;1.20;0.82;;;;;;;12.66;100.00;102864.78;5004579;28;20541;-76
2023/05/30 08:57:44;;;;;;;0.80;0.80;;;;;;;12.71;100.00;102867.53;5042767;28;20053;-76
2023/05/30 09:00:14;;;;;;;0.75;0.75;;;;;;;12.75;100.00;102863.22;5023128;28;20052;-76
2023/05/30 09:02:45;;;;;;;2.22;0.80;;;;;;;12.71;100.00;102869.31;4974283;28;20054;-76
2023/05/30 09:05:15;;;;;;;1.50;0.85;;;;;;;12.71;100.00;102875.47;5011435;28;20045;-76
2023/05/30 09:07:44;;;;;;;1.60;0.80;;;;;;;12.77;100.00;102874.75;5054046;28;20810;-76
2023/05/30 09:10:12;;;;;;;3.45;1.10;;;;;;;12.80;100.00;102864.25;5055973;28;20060;-76
2023/05/30 09:12:41;;;;;;;2.20;1.00;;;;;;;12.84;100.00;102856.41;5049063;28;20042;-76
2023/05/30 09:15:09;;;;;;;3.33;1.10;;;;;;;12.90;100.00;102868.91;5036080;28;20054;-76
2023/05/30 09:17:37;;;;;;;0.98;0.98;;;;;;;12.92;100.00;102866.31;5020142;28;20065;-76
2023/05/30 09:20:07;;;;;;;3.17;0.77;;;;;;;12.98;100.00;102863.81;4964643;28;20045;-76
2023/05/30 09:22:36;;;;;;;3.38;1.02;;;;;;;13.08;100.00;102860.56;4990862;28;20053;-76
2023/05/30 09:25:05;;;;;;;1.33;1.10;;;;;;;13.16;100.00;102869.59;5033212;28;20053;-76
2023/05/30 09:27:35;;;;;;;0.93;0.68;;;;;;;13.19;100.00;102872.28;5000215;28;20046;-76
2023/05/30 09:30:10;;;;;;;;;;;;;;;13.16;100.00;102866.06;5014643;28;20045;-76
2023/05/30 09:32:38;;;;;;;0.70;0.70;;;;;;;13.15;100.00;102878.38;5019450;28;19929;-76
2023/05/30 09:35:09;;;;;;;0.70;0.70;;;;;;;13.15;100.00;102878.38;4958541;28;20057;-76
2023/05/30 09:37:39;;;;;;;3.22;1.02;;;;;;;13.19;100.00;102880.22;4995469;28;20686;-76
2023/05/30 09:40:15;;;;;;;1.83;0.90;;;;;;;13.26;100.00;102883.94;5024714;28;20050;-76
2023/05/30 09:42:47;;;;;;;2.25;0.65;;;;;;;13.30;100.00;102876.97;5019881;28;20039;-75
2023/05/30 09:45:16;;;;;;;3.28;0.73;;;;;;;13.32;100.00;102881.47;5032182;28;20053;-76
2023/05/30 09:47:46;;;;;;;1.70;0.75;;;;;;;13.37;100.00;102874.53;5021516;28;20050;-76
2023/05/30 09:50:16;;;;;;;0.88;0.88;;;;;;;13.50;100.00;102877.50;4977436;28;20053;-76
2023/05/30 09:52:44;;;;;;;1.77;0.77;;;;;;;13.62;100.00;102878.63;5017383;28;20156;-76
2023/05/30 09:55:13;;;;;;;1.20;1.00;;;;;;;13.69;100.00;102877.03;5026243;28;20079;-76
2023/05/30 09:57:46;;;;;;;0.90;0.90;;;;;;;13.68;100.00;102877.00;5023119;28;20768;-76
2023/05/30 10:00:18;;;;;;;1.85;0.80;;;;;;;13.72;100.00;102873.56;5026621;28;20053;-76
2023/05/30 10:02:53;;;;;;;1.75;0.60;;;;;;;13.87;100.00;102873.88;5040703;28;20537;-76
2023/05/30 10:05:22;;;;;;;0.95;0.80;;;;;;;13.93;100.00;102871.41;4969307;28;20053;-76
2023/05/30 10:07:52;;;;;;;1.08;0.60;;;;;;;13.96;100.00;102882.03;5010584;28;20049;-76
2023/05/30 10:10:19;;;;;;;1.08;0.75;;;;;;;13.85;100.00;102878.25;5012145;28;20057;-76
2023/05/30 10:12:52;;;;;;;0.68;0.68;;;;;;;13.75;100.00;102884.25;5046708;28;20049;-76
2023/05/30 10:15:21;;;;;;;1.80;0.70;;;;;;;13.71;100.00;102883.28;5008427;28;20414;-76
2023/05/30 10:18:20;;;;;;;2.05;0.75;;;;;;;13.72;100.00;102884.16;5026136;28;20037;-76
2023/05/30 10:20:48;;;;;;;0.60;0.60;;;;;;;13.78;100.00;102884.28;4983383;28;20489;-76
2023/05/30 10:23:17;;;;;;;1.70;0.63;;;;;;;13.82;100.00;102868.50;5017838;28;20053;-76
2023/05/30 10:25:49;;;;;;;0.60;0.60;;;;;;;13.93;100.00;102867.81;5024503;28;20560;-76
2023/05/30 10:28:22;;;;;;;0.95;0.73;;;;;;;14.15;100.00;102870.06;5029570;28;20050;-76
2023/05/30 10:30:51;;;;;;;0.80;0.80;;;;;;;14.33;100.00;102860.69;5028071;28;20647;-76
2023/05/30 10:33:20;;;;;;;1.00;0.80;;;;;;;14.46;100.00;102870.72;5036956;28;20056;-76
2023/05/30 10:36:00;;;;;;;0.90;0.90;;;;;;;14.53;100.00;102874.34;4950005;28;20045;-76
2023/05/30 10:38:35;;;;;;;1.90;0.90;;;;;;;14.52;100.00;102880.53;5014390;28;20045;-76
2023/05/30 10:41:07;;;;;;;2.03;1.08;;;;;;;14.49;100.00;102888.44;5024901;28;20053;-76
2023/05/30 10:43:58;;;;;;;0.98;0.98;;;;;;;14.43;100.00;102868.88;5015758;28;20061;-77
2023/05/30 10:46:47;;;;;;;1.40;0.88;;;;;;;14.33;100.00;102888.13;5023013;28;20491;-76
2023/05/30 10:49:18;;;;;;;1.40;0.65;;;;;;;14.24;100.00;102878.22;5041195;28;20064;-76
2023/05/30 10:52:17;;;;;;;0.90;0.90;;;;;;;14.17;100.00;102883.38;4979596;28;20045;-75
2023/05/30 10:54:47;;;;;;;0.65;0.60;;;;;;;14.16;100.00;102873.63;4982709;28;20080;-75
2023/05/30 10:57:26;;;;;;;1.45;0.70;;;;;;;14.17;100.00;102870.09;5049607;28;20037;-76
2023/05/30 11:00:16;;;;;;;2.28;0.80;;;;;;;14.22;100.00;102876.41;5021990;28;20526;-76
2023/05/30 11:02:49;;;;;;;0.40;0.40;;;;;;;14.26;100.00;102878.25;5023168;28;20041;-76
2023/05/30 11:05:20;;;;;;;1.42;0.70;;;;;;;14.30;100.00;102872.16;5019606;28;20049;-76
2023/05/30 11:07:48;;;;;;;2.03;0.60;;;;;;;14.42;100.00;102866.19;4970840;28;20415;-77
2023/05/30 11:10:24;;;;;;;0.90;0.90;;;;;;;14.59;100.00;102869.19;5017267;28;20068;-76
2023/05/30 11:12:52;;;;;;;0.45;0.45;;;;;;;14.64;100.00;102856.91;5035646;28;20411;-76
2023/05/30 11:15:33;;;;;;;0.63;0.63;;;;;;;14.72;100.00;102870.31;5018912;28;20080;-76
2023/05/30 11:18:13;;;;;;;0.88;0.80;;;;;;;14.73;100.00;102859.75;5023310;28;20045;-76
2023/05/30 11:20:56;;;;;;;1.20;0.90;;;;;;;14.68;100.00;102858.75;5018460;28;20053;-76
2023/05/30 11:23:27;;;;;;;0.75;0.75;;;;;;;14.62;100.00;102858.66;4974889;28;20045;-75
2023/05/30 11:25:58;;;;;;;1.60;0.98;;;;;;;14.61;100.00;102854.19;5008185;28;20038;-76
2023/05/30 11:28:35;;;;;;;;;;;;;;;14.55;100.00;102854.06;5023829;28;20041;-75